Time;durP1;ratioP1;P1;durP2;ratioP2;P2;SDS_P1;SDS_P2;PMS_P1;PMS_P2;Temp;Humidity;BMP_temperature;BMP_pressure;BME280_temperature;BME280_humidity;BME280_pressure;Samples;Min_cycle;Max_cycle;Signal;HPM_P1;HPM_P2
2023/03/18 00:00:23;;;;;;;6.95;5.25;;;;;;;8.91;73.61;97850.81;7381923;19;19915;-80
2023/03/18 00:02:51;;;;;;;6.15;4.53;;;;;;;8.92;73.59;97842.75;7385205;19;19918;-80
2023/03/18 00:05:19;;;;;;;9.00;5.65;;;;;;;8.86;73.33;97853.09;7385845;19;19930;-81
2023/03/18 00:07:46;;;;;;;7.55;4.40;;;;;;;8.85;72.87;97846.19;7386134;19;19925;-79
2023/03/18 00:10:13;;;;;;;7.57;5.30;;;;;;;8.86;73.33;97847.84;7384290;19;19919;-80
2023/03/18 00:12:40;;;;;;;7.20;5.05;;;;;;;8.87;72.89;97857.38;7389490;19;20308;-80
2023/03/18 00:15:09;;;;;;;5.93;4.47;;;;;;;8.93;73.81;97854.16;7386543;19;19923;-80
2023/03/18 00:17:36;;;;;;;8.02;4.82;;;;;;;8.95;73.12;97845.09;7384283;19;19926;-80
2023/03/18 00:20:05;;;;;;;5.75;5.03;;;;;;;8.93;73.38;97848.88;7376024;19;19955;-80
2023/03/18 00:22:33;;;;;;;6.13;4.53;;;;;;;8.92;73.02;97845.38;7385633;19;19998;-79
2023/03/18 00:24:59;;;;;;;6.63;4.63;;;;;;;8.95;72.96;97852.16;7378972;19;20030;-78
2023/03/18 00:27:27;;;;;;;6.35;3.97;;;;;;;8.91;72.50;97843.75;7382468;19;19922;-80
2023/03/18 00:29:54;;;;;;;5.13;4.05;;;;;;;8.93;72.35;97848.88;7377067;19;19926;-80
2023/03/18 00:32:22;;;;;;;7.15;4.28;;;;;;;8.94;72.34;97853.97;7382166;19;20643;-80
2023/03/18 00:34:49;;;;;;;5.80;4.05;;;;;;;8.94;71.29;97861.88;7375309;19;19930;-80
2023/03/18 00:37:28;;;;;;;5.47;3.53;;;;;;;8.96;70.87;97859.09;7378960;19;19990;-79
2023/03/18 00:40:03;;;;;;;5.72;5.22;;;;;;;8.98;71.72;97873.78;7371447;19;19918;-80
2023/03/18 00:42:37;;;;;;;5.80;3.70;;;;;;;8.99;71.32;97859.59;7386733;19;19926;-81
2023/03/18 00:45:07;;;;;;;9.05;4.57;;;;;;;8.91;69.58;97871.94;7380589;19;20002;-81
2023/03/18 00:47:34;;;;;;;4.97;3.78;;;;;;;8.87;69.57;97879.31;7383595;19;20335;-80
2023/03/18 00:50:02;;;;;;;4.68;4.10;;;;;;;8.90;68.27;97879.03;7378460;19;19952;-80
2023/03/18 00:52:29;;;;;;;5.18;3.35;;;;;;;8.95;68.53;97875.91;7379545;19;19926;-80
2023/03/18 00:54:58;;;;;;;7.22;4.07;;;;;;;8.96;68.97;97882.84;7380010;19;19919;-79
2023/03/18 00:57:28;;;;;;;6.15;3.80;;;;;;;8.90;69.36;97884.31;7382498;19;19997;-80
2023/03/18 00:59:55;;;;;;;6.63;3.92;;;;;;;8.93;69.41;97876.06;7377901;19;19914;-80
2023/03/18 01:02:23;;;;;;;7.00;4.03;;;;;;;8.90;69.74;97883.44;7383936;19;19923;-80
2023/03/18 01:04:51;;;;;;;7.00;4.20;;;;;;;8.86;69.33;97880.31;7379289;19;19941;-80
2023/03/18 01:07:18;;;;;;;5.70;3.25;;;;;;;8.87;70.79;97886.41;7378274;19;19938;-80
2023/03/18 01:09:47;;;;;;;5.00;3.63;;;;;;;8.86;71.40;97884.75;7371151;19;20275;-80
2023/03/18 01:12:13;;;;;;;5.60;4.20;;;;;;;8.83;71.86;97879.81;7383925;19;19922;-79
2023/03/18 01:14:41;;;;;;;4.22;3.30;;;;;;;8.82;72.36;97876.34;7383549;19;19986;-80
2023/03/18 01:17:08;;;;;;;5.82;3.72;;;;;;;8.77;72.67;97878.63;7376721;19;19926;-80
2023/03/18 01:19:36;;;;;;;5.70;3.30;;;;;;;8.70;72.46;97881.03;7381054;19;19930;-80
2023/03/18 01:22:03;;;;;;;4.93;3.42;;;;;;;8.64;72.87;97886.97;7378135;19;19914;-80
2023/03/18 01:24:35;;;;;;;5.28;3.97;;;;;;;8.58;72.92;97884.91;7379292;19;19919;-80
2023/03/18 01:27:03;;;;;;;5.82;3.45;;;;;;;8.48;72.46;97885.03;7374749;19;19990;-80
2023/03/18 01:29:30;;;;;;;6.38;3.92;;;;;;;8.46;73.33;97888.81;7380141;19;19921;-80
2023/03/18 01:31:57;;;;;;;5.25;4.43;;;;;;;8.42;73.54;97882.19;7378729;19;19922;-80
2023/03/18 01:34:24;;;;;;;6.03;4.10;;;;;;;8.36;72.88;97889.69;7380679;19;19915;-80
2023/03/18 01:36:52;;;;;;;5.30;3.83;;;;;;;8.32;73.28;97880.44;7377812;19;19915;-80
2023/03/18 01:39:22;;;;;;;6.72;3.78;;;;;;;8.28;73.96;97881.72;7376850;19;19933;-79
2023/03/18 01:41:50;;;;;;;4.65;3.40;;;;;;;8.27;73.61;97881.88;7375986;19;19967;-79
2023/03/18 01:44:26;;;;;;;4.40;3.03;;;;;;;8.26;72.77;97869.69;7376053;19;19918;-80
2023/03/18 01:46:55;;;;;;;6.35;3.65;;;;;;;8.28;73.20;97867.72;7376124;19;20606;-80
2023/03/18 01:49:30;;;;;;;5.82;3.97;;;;;;;8.29;73.26;97864.09;7377099;19;20597;-79
2023/03/18 01:52:09;;;;;;;4.35;3.70;;;;;;;8.31;73.64;97870.03;7384694;19;19918;-79
2023/03/18 01:54:40;;;;;;;4.75;3.65;;;;;;;8.33;73.31;97871.53;7387462;19;19922;-80
2023/03/18 01:57:07;;;;;;;4.97;4.13;;;;;;;8.35;73.55;97869.59;7379524;19;19918;-80
2023/03/18 01:59:37;;;;;;;4.10;3.60;;;;;;;8.42;73.86;97871.63;7384789;19;19922;-80
2023/03/18 02:02:08;;;;;;;4.22;3.00;;;;;;;8.44;73.52;97859.97;7382877;19;19918;-80
2023/03/18 02:04:38;;;;;;;3.38;3.08;;;;;;;8.53;73.95;97858.19;7388018;19;20288;-80
2023/03/18 02:07:13;;;;;;;4.50;4.10;;;;;;;8.56;73.05;97871.91;7385469;19;19978;-80
2023/03/18 02:09:40;;;;;;;3.92;2.78;;;;;;;8.61;73.46;97867.97;7389735;19;19926;-80
2023/03/18 02:12:07;;;;;;;4.15;2.83;;;;;;;8.64;73.23;97870.31;7386612;19;19974;-80
2023/03/18 02:14:34;;;;;;;3.30;2.63;;;;;;;8.63;72.54;97873.91;7385769;19;19927;-80
2023/03/18 02:17:11;;;;;;;4.15;3.10;;;;;;;8.64;69.56;97875.59;7379679;19;19919;-80
2023/03/18 02:19:46;;;;;;;4.38;2.67;;;;;;;8.67;70.65;97873.44;7385510;19;19923;-80
2023/03/18 02:22:56;;;;;;;2.00;1.77;;;;;;;8.71;70.39;97866.88;7387362;19;19932;-81
2023/03/18 02:25:56;;;;;;;3.42;1.98;;;;;;;8.75;71.15;97862.13;7384378;19;19937;-80
2023/03/18 02:28:25;;;;;;;2.70;2.28;;;;;;;8.71;70.21;97866.03;7385378;19;19934;-80
2023/03/18 02:30:55;;;;;;;2.63;2.40;;;;;;;8.69;67.52;97866.22;7381140;19;19911;-80
2023/03/18 02:33:25;;;;;;;4.18;2.35;;;;;;;8.69;66.78;97874.13;7382110;19;19981;-79
2023/03/18 02:35:56;;;;;;;5.03;4.57;;;;;;;8.68;65.48;97875.09;7381891;19;19930;-80
2023/03/18 02:38:22;;;;;;;2.60;2.03;;;;;;;8.57;65.32;97870.09;7386270;19;19926;-80
2023/03/18 02:40:50;;;;;;;4.90;3.33;;;;;;;8.52;67.63;97875.00;7386463;19;20344;-81
2023/03/18 02:43:28;;;;;;;;;;;;;;;8.38;69.07;97880.81;7388016;19;19962;-80
2023/03/18 02:46:13;;;;;;;2.80;2.03;;;;;;;8.13;69.75;97878.78;7383538;19;19914;-81
2023/03/18 02:48:43;;;;;;;4.20;2.17;;;;;;;8.06;72.02;97879.59;7382412;19;19922;-81
2023/03/18 02:51:11;;;;;;;3.17;2.38;;;;;;;7.98;72.82;97885.59;7376931;19;19941;-79
2023/03/18 02:53:38;;;;;;;2.70;2.13;;;;;;;7.90;72.90;97881.09;7382915;19;19922;-79
2023/03/18 02:56:05;;;;;;;4.50;2.45;;;;;;;7.82;73.88;97878.38;7382701;19;20368;-79
2023/03/18 02:58:34;;;;;;;2.15;1.70;;;;;;;7.83;73.81;97879.22;7380849;19;19923;-80
2023/03/18 03:01:03;;;;;;;3.05;2.15;;;;;;;7.89;73.29;97882.06;7381537;19;19915;-80
2023/03/18 03:03:30;;;;;;;3.53;2.10;;;;;;;7.86;73.71;97887.63;7380717;19;20376;-80
2023/03/18 03:05:57;;;;;;;3.88;2.63;;;;;;;7.91;71.86;97890.63;7378201;19;19914;-79
2023/03/18 03:08:23;;;;;;;5.45;3.97;;;;;;;8.07;71.94;97889.13;7381798;19;19994;-80
2023/03/18 03:10:51;;;;;;;8.90;5.35;;;;;;;8.09;72.71;97888.00;7381766;19;20355;-81
2023/03/18 03:13:19;;;;;;;6.63;4.18;;;;;;;8.08;72.74;97896.03;7383792;19;19918;-80
2023/03/18 03:15:47;;;;;;;6.38;4.05;;;;;;;8.06;72.78;97898.84;7385097;19;20311;-79
2023/03/18 03:18:14;;;;;;;7.25;4.72;;;;;;;7.99;73.29;97904.88;7375035;19;19918;-80
2023/03/18 03:20:42;;;;;;;9.52;5.93;;;;;;;7.96;73.67;97908.63;7383662;19;19949;-80
2023/03/18 03:23:12;;;;;;;5.55;4.05;;;;;;;7.90;74.20;97910.06;7380321;19;20360;-79
2023/03/18 03:25:39;;;;;;;4.53;4.10;;;;;;;7.91;73.71;97900.34;7385515;19;19910;-80
2023/03/18 03:28:07;;;;;;;7.20;4.63;;;;;;;7.88;74.19;97906.75;7382084;19;19918;-80
2023/03/18 03:30:35;;;;;;;7.45;4.05;;;;;;;7.85;74.44;97904.41;7382026;19;19982;-80
2023/03/18 03:33:03;;;;;;;6.03;4.00;;;;;;;7.72;74.39;97909.22;7384297;19;19925;-80
2023/03/18 03:35:30;;;;;;;5.97;4.72;;;;;;;7.73;74.30;97902.16;7381380;19;19919;-79
2023/03/18 03:37:57;;;;;;;5.00;4.10;;;;;;;7.66;74.49;97910.66;7375458;19;19923;-80
2023/03/18 03:40:24;;;;;;;4.07;3.67;;;;;;;7.68;74.67;97906.03;7380612;19;19921;-79
2023/03/18 03:42:51;;;;;;;6.78;4.05;;;;;;;7.60;74.72;97907.75;7382038;19;19943;-81
2023/03/18 03:45:18;;;;;;;6.00;3.38;;;;;;;7.55;74.28;97915.28;7383246;19;19937;-79
2023/03/18 03:47:46;;;;;;;6.25;3.35;;;;;;;7.56;74.83;97917.78;7384586;19;20316;-79
2023/03/18 03:50:15;;;;;;;4.47;3.55;;;;;;;7.57;74.59;97921.22;7375733;19;19921;-80
2023/03/18 03:52:42;;;;;;;3.85;3.20;;;;;;;7.49;75.23;97924.59;7381109;19;19922;-80
2023/03/18 03:55:12;;;;;;;3.50;2.67;;;;;;;7.51;75.30;97927.91;7375384;19;19918;-80
2023/03/18 03:57:39;;;;;;;3.47;3.13;;;;;;;7.49;75.11;97916.69;7381261;19;20486;-80
2023/03/18 04:00:13;;;;;;;3.22;2.60;;;;;;;7.46;75.03;97923.09;7379423;19;20350;-79
2023/03/18 04:02:42;;;;;;;4.03;3.58;;;;;;;7.39;74.89;97922.00;7383605;19;20340;-80
2023/03/18 04:05:11;;;;;;;;;;;;;;;7.30;74.64;97927.34;7384110;19;19954;-80
2023/03/18 04:07:38;;;;;;;3.53;2.92;;;;;;;7.32;75.38;97928.00;7384173;19;19938;-79
2023/03/18 04:10:08;;;;;;;5.25;4.25;;;;;;;7.30;75.55;97924.72;7379539;19;19935;-80
2023/03/18 04:12:36;;;;;;;3.28;2.63;;;;;;;7.26;75.30;97929.41;7380473;19;19919;-79
2023/03/18 04:15:04;;;;;;;4.40;3.55;;;;;;;7.27;74.89;97928.47;7376682;19;19910;-80
2023/03/18 04:17:32;;;;;;;4.85;3.20;;;;;;;7.26;75.05;97924.16;7383141;19;19910;-79
2023/03/18 04:19:59;;;;;;;3.83;2.30;;;;;;;7.24;75.17;97928.72;7379078;19;19925;-80
2023/03/18 04:22:30;;;;;;;4.40;2.47;;;;;;;7.22;75.56;97936.78;7383783;19;19925;-79
2023/03/18 04:25:01;;;;;;;5.65;2.88;;;;;;;7.20;75.36;97927.38;7380402;19;19910;-80
2023/03/18 04:27:28;;;;;;;3.67;2.85;;;;;;;7.16;75.41;97929.47;7379529;19;19915;-79
2023/03/18 04:29:58;;;;;;;4.30;2.97;;;;;;;7.13;75.61;97934.19;7374991;19;20559;-79
2023/03/18 04:32:33;;;;;;;3.17;2.63;;;;;;;7.09;75.89;97932.84;7383538;19;19929;-79
2023/03/18 04:35:00;;;;;;;3.22;2.20;;;;;;;7.08;75.85;97931.97;7379399;19;19926;-80
2023/03/18 04:37:27;;;;;;;3.10;2.35;;;;;;;7.06;76.08;97935.72;7379854;19;19922;-79
2023/03/18 04:39:55;;;;;;;3.22;2.90;;;;;;;7.03;76.17;97936.88;7377272;19;19927;-81
2023/03/18 04:42:22;;;;;;;3.40;2.80;;;;;;;7.00;76.07;97937.13;7384172;19;19923;-80
2023/03/18 04:44:48;;;;;;;4.18;2.30;;;;;;;6.98;75.93;97939.94;7378952;19;19915;-80
2023/03/18 04:47:15;;;;;;;2.97;2.25;;;;;;;6.95;76.28;97934.97;7378483;19;19962;-80
2023/03/18 04:49:48;;;;;;;4.53;2.78;;;;;;;6.91;76.13;97941.47;7381656;19;19923;-80
2023/03/18 04:52:16;;;;;;;4.18;2.58;;;;;;;6.86;75.97;97941.06;7381127;19;19957;-80
2023/03/18 04:54:43;;;;;;;3.33;3.03;;;;;;;6.81;76.25;97940.66;7382000;19;19942;-80
2023/03/18 04:57:10;;;;;;;3.97;2.78;;;;;;;6.81;76.07;97951.19;7377773;19;19922;-80
2023/03/18 04:59:44;;;;;;;2.42;2.22;;;;;;;6.75;76.43;97946.50;7376904;19;19929;-80
2023/03/18 05:02:10;;;;;;;3.35;2.65;;;;;;;6.70;76.64;97948.72;7376452;19;20006;-80
2023/03/18 05:04:37;;;;;;;3.80;2.78;;;;;;;6.68;76.59;97942.75;7378341;19;20353;-80
2023/03/18 05:07:06;;;;;;;3.60;2.53;;;;;;;6.64;76.50;97946.66;7376056;19;19927;-80
2023/03/18 05:09:36;;;;;;;3.08;2.78;;;;;;;6.59;76.65;97942.66;7381283;19;19922;-80
2023/03/18 05:12:05;;;;;;;3.20;2.50;;;;;;;6.55;76.67;97941.25;7379190;19;19929;-79
2023/03/18 05:14:35;;;;;;;3.17;2.38;;;;;;;6.53;77.06;97937.97;7380069;19;19923;-80
2023/03/18 05:17:03;;;;;;;4.43;2.70;;;;;;;6.54;76.79;97936.16;7376444;19;19945;-80
2023/03/18 05:19:32;;;;;;;4.47;2.80;;;;;;;6.54;76.58;97936.97;7377873;19;19929;-80
2023/03/18 05:22:10;;;;;;;4.32;2.50;;;;;;;6.52;76.26;97936.28;7380600;19;19914;-80
2023/03/18 05:24:42;;;;;;;2.65;2.22;;;;;;;6.48;76.39;97937.56;7382186;19;19915;-80
2023/03/18 05:27:09;;;;;;;3.95;2.63;;;;;;;6.48;76.30;97936.72;7386358;19;20428;-80
2023/03/18 05:29:39;;;;;;;3.35;2.40;;;;;;;6.48;76.73;97945.44;7387699;19;19915;-80
2023/03/18 05:32:25;;;;;;;4.35;2.88;;;;;;;6.47;76.77;97946.38;7395278;19;19914;-80
2023/03/18 05:34:58;;;;;;;3.63;2.92;;;;;;;6.46;76.13;97949.19;7388607;19;19915;-80
2023/03/18 05:37:26;;;;;;;3.38;2.50;;;;;;;6.45;76.29;97943.09;7384911;19;20352;-80
2023/03/18 05:40:03;;;;;;;2.75;2.33;;;;;;;6.46;76.37;97955.25;7383859;19;19914;-80
2023/03/18 05:42:29;;;;;;;3.13;2.15;;;;;;;6.44;76.11;97957.19;7388214;19;19919;-80
2023/03/18 05:44:57;;;;;;;2.22;2.00;;;;;;;6.46;76.17;97954.44;7389512;19;19919;-80
2023/03/18 05:47:24;;;;;;;2.08;1.88;;;;;;;6.47;75.78;97953.44;7386171;19;19922;-80
2023/03/18 05:50:13;;;;;;;4.80;2.40;;;;;;;6.53;75.67;97951.09;7385448;19;19929;-80
2023/03/18 05:52:40;;;;;;;3.83;2.58;;;;;;;6.57;75.69;97952.47;7380972;19;19923;-79
2023/03/18 05:55:14;;;;;;;3.22;2.22;;;;;;;6.60;75.83;97951.34;7386704;19;20277;-80
2023/03/18 05:57:44;;;;;;;2.45;1.90;;;;;;;6.64;76.05;97951.94;7384769;19;20345;-80
2023/03/18 06:00:12;;;;;;;3.13;2.47;;;;;;;6.64;74.96;97954.56;7381456;19;19939;-80
2023/03/18 06:02:42;;;;;;;3.28;2.30;;;;;;;6.66;75.78;97955.22;7384839;19;19953;-79
2023/03/18 06:05:11;;;;;;;4.00;2.63;;;;;;;6.63;75.46;97955.50;7383946;19;19918;-79
2023/03/18 06:07:38;;;;;;;3.63;3.33;;;;;;;6.66;75.64;97957.84;7385618;19;19938;-79
2023/03/18 06:10:05;;;;;;;5.13;2.03;;;;;;;6.69;74.74;97955.78;7383007;19;19914;-80
2023/03/18 06:12:32;;;;;;;3.45;3.25;;;;;;;6.76;74.34;97956.84;7387419;19;19982;-80
2023/03/18 06:14:59;;;;;;;2.13;1.88;;;;;;;6.81;73.49;97954.63;7387461;19;19926;-79
2023/03/18 06:17:26;;;;;;;2.85;2.40;;;;;;;6.89;73.65;97956.53;7389281;19;19915;-80
2023/03/18 06:19:53;;;;;;;3.05;1.88;;;;;;;6.94;73.73;97956.94;7388675;19;19922;-79
2023/03/18 06:22:21;;;;;;;2.60;2.00;;;;;;;6.95;73.49;97961.25;7386486;19;19918;-80
2023/03/18 06:24:48;;;;;;;2.95;2.13;;;;;;;6.99;73.20;97965.25;7388386;19;19918;-79
2023/03/18 06:27:17;;;;;;;3.75;2.67;;;;;;;7.02;73.05;97969.38;7376854;19;19919;-80
2023/03/18 06:29:48;;;;;;;2.95;2.20;;;;;;;7.04;73.45;97968.28;7384977;19;20363;-79
2023/03/18 06:32:17;;;;;;;5.35;2.83;;;;;;;7.04;72.80;97972.72;7387600;19;20276;-80
2023/03/18 06:34:44;;;;;;;3.33;2.47;;;;;;;7.07;73.49;97969.78;7384237;19;19926;-80
2023/03/18 06:37:11;;;;;;;2.33;2.13;;;;;;;7.10;72.91;97971.31;7386701;19;20503;-80
2023/03/18 06:39:37;;;;;;;2.80;2.60;;;;;;;7.11;73.28;97968.53;7387743;19;19930;-79
2023/03/18 06:42:08;;;;;;;3.10;2.28;;;;;;;7.09;72.87;97965.22;7381077;19;19925;-79
2023/03/18 06:44:50;;;;;;;2.97;2.63;;;;;;;7.15;73.24;97975.16;7385886;19;19952;-81
2023/03/18 06:47:26;;;;;;;3.72;2.22;;;;;;;7.21;72.69;97979.00;7384928;19;19922;-80
2023/03/18 06:49:55;;;;;;;3.50;2.83;;;;;;;7.30;72.88;97972.06;7386518;19;19926;-79
2023/03/18 06:52:32;;;;;;;3.20;2.13;;;;;;;7.35;72.59;97973.28;7385013;19;20598;-80
2023/03/18 06:55:09;;;;;;;3.63;2.58;;;;;;;7.43;72.13;97981.28;7385003;19;19990;-80
2023/03/18 06:57:39;;;;;;;4.00;2.40;;;;;;;7.52;72.36;97973.50;7377542;19;19918;-79
2023/03/18 07:00:09;;;;;;;4.20;2.10;;;;;;;7.59;71.68;97974.56;7376666;19;19923;-81
2023/03/18 07:02:36;;;;;;;4.03;2.10;;;;;;;7.63;72.01;97975.91;7388153;19;20645;-80
2023/03/18 07:05:07;;;;;;;3.55;2.30;;;;;;;7.74;71.55;97974.88;7385027;19;19926;-80
2023/03/18 07:07:36;;;;;;;3.83;2.65;;;;;;;7.80;70.48;97977.78;7386254;19;19937;-79
2023/03/18 07:10:09;;;;;;;5.03;2.83;;;;;;;7.90;69.63;97978.53;7380600;19;19929;-79
2023/03/18 07:12:36;;;;;;;2.88;1.85;;;;;;;8.02;69.67;97986.22;7384546;19;20349;-80
2023/03/18 07:15:05;;;;;;;3.08;2.28;;;;;;;8.14;69.92;97977.13;7381773;19;19915;-80
2023/03/18 07:17:31;;;;;;;6.57;4.10;;;;;;;8.28;69.61;97984.50;7384824;19;20803;-81
2023/03/18 07:19:58;;;;;;;3.15;2.50;;;;;;;8.43;69.50;97978.75;7387337;19;19915;-80
2023/03/18 07:22:25;;;;;;;4.10;3.35;;;;;;;8.55;69.64;97983.59;7381684;19;19974;-79
2023/03/18 07:24:55;;;;;;;7.70;2.70;;;;;;;8.69;68.69;97984.03;7387321;19;19946;-80
2023/03/18 07:27:22;;;;;;;4.53;2.60;;;;;;;8.81;69.00;97993.38;7392568;19;19926;-81
2023/03/18 07:29:50;;;;;;;4.38;2.53;;;;;;;8.87;68.94;97990.09;7415005;19;19950;-80
2023/03/18 07:32:19;;;;;;;3.67;3.25;;;;;;;8.98;68.73;97999.59;7412896;19;19907;-80
2023/03/18 07:34:47;;;;;;;4.45;2.40;;;;;;;9.16;68.39;97991.63;7411696;19;19939;-80
2023/03/18 07:37:14;;;;;;;6.88;3.13;;;;;;;9.40;67.90;97997.03;7405571;19;20277;-80
2023/03/18 07:39:42;;;;;;;3.03;2.35;;;;;;;9.67;66.17;98001.28;7411600;19;19922;-81
2023/03/18 07:42:10;;;;;;;3.08;2.03;;;;;;;9.96;65.73;98005.34;7415834;19;19918;-80
2023/03/18 07:44:39;;;;;;;;;;;;;;;10.28;64.51;98001.16;7415186;19;19915;-79
2023/03/18 07:47:06;;;;;;;3.08;2.30;;;;;;;10.64;63.90;97996.41;7415482;19;19915;-79
2023/03/18 07:49:33;;;;;;;4.40;2.65;;;;;;;11.09;62.49;98002.16;7410257;19;19938;-79
2023/03/18 07:52:00;;;;;;;4.47;2.13;;;;;;;11.48;60.85;98004.03;7416465;19;19934;-80
2023/03/18 07:54:27;;;;;;;3.58;2.15;;;;;;;11.72;60.60;98000.50;7411753;19;19946;-80
2023/03/18 07:56:54;;;;;;;3.15;2.28;;;;;;;11.92;58.88;97995.59;7398703;19;19915;-80
2023/03/18 07:59:20;;;;;;;3.70;2.42;;;;;;;12.25;58.18;97991.78;7385370;19;19918;-79
2023/03/18 08:01:47;;;;;;;4.70;2.45;;;;;;;12.78;56.90;97999.84;7381831;19;19922;-80
2023/03/18 08:04:15;;;;;;;2.38;1.63;;;;;;;13.17;55.60;97998.84;7380614;19;19922;-79
2023/03/18 08:06:42;;;;;;;4.72;2.17;;;;;;;13.33;54.91;98001.34;7383523;19;19986;-80
2023/03/18 08:09:09;;;;;;;3.17;2.88;;;;;;;13.13;56.17;98002.84;7382915;19;19938;-80
2023/03/18 08:11:37;;;;;;;5.63;2.42;;;;;;;12.91;55.78;98001.91;7380198;19;20337;-79
2023/03/18 08:14:03;;;;;;;2.83;1.90;;;;;;;13.01;55.57;98004.31;7386255;19;20305;-79
2023/03/18 08:16:30;;;;;;;4.43;1.80;;;;;;;13.02;54.85;98008.59;7380952;19;19929;-80
2023/03/18 08:18:57;;;;;;;3.17;2.03;;;;;;;13.20;55.70;98013.59;7383883;19;19927;-80
2023/03/18 08:21:24;;;;;;;2.78;2.42;;;;;;;13.35;53.48;98015.28;7380418;19;22477;-80
2023/03/18 08:23:51;;;;;;;6.18;2.22;;;;;;;13.74;51.95;98010.69;7378276;19;19918;-80
2023/03/18 08:26:18;;;;;;;2.95;1.63;;;;;;;13.97;51.51;98019.38;7380452;19;19925;-80
2023/03/18 08:28:44;;;;;;;3.58;1.70;;;;;;;14.15;51.98;98013.66;7382830;19;20423;-80
2023/03/18 08:31:13;;;;;;;3.20;1.33;;;;;;;14.14;50.66;98011.16;7378368;19;19930;-80
2023/03/18 08:33:40;;;;;;;2.35;1.77;;;;;;;14.10;51.11;98012.56;7388419;19;19958;-80
2023/03/18 08:36:07;;;;;;;3.58;1.67;;;;;;;14.00;51.71;98011.00;7381197;19;19922;-80
2023/03/18 08:38:34;;;;;;;4.47;2.00;;;;;;;13.88;52.37;98012.50;7381287;19;20264;-80
2023/03/18 08:41:00;;;;;;;3.10;1.75;;;;;;;13.84;52.13;98005.91;7386627;19;19922;-80
2023/03/18 08:43:27;;;;;;;2.97;2.03;;;;;;;14.02;51.53;98008.19;7380992;19;19942;-80
2023/03/18 08:45:55;;;;;;;5.18;1.90;;;;;;;14.15;51.67;98010.16;7387075;19;19926;-81
2023/03/18 08:48:22;;;;;;;2.53;1.92;;;;;;;14.23;51.59;98002.88;7382018;19;19933;-80
2023/03/18 08:50:49;;;;;;;7.25;2.40;;;;;;;14.32;50.50;98008.91;7382635;19;19922;-80
2023/03/18 08:53:16;;;;;;;4.20;2.55;;;;;;;14.48;49.63;97997.19;7378469;19;19941;-80
2023/03/18 08:55:43;;;;;;;3.92;2.78;;;;;;;14.38;51.77;98002.84;7388566;19;19922;-80
2023/03/18 08:58:10;;;;;;;2.53;1.52;;;;;;;14.53;49.18;98000.16;7388570;19;19914;-81
2023/03/18 09:00:40;;;;;;;2.25;1.55;;;;;;;14.85;49.25;97998.81;7390869;19;20439;-81
2023/03/18 09:03:08;;;;;;;3.40;2.70;;;;;;;15.11;48.65;97994.69;7380403;19;20541;-80
2023/03/18 09:05:36;;;;;;;2.97;1.58;;;;;;;15.24;47.89;97991.31;7384447;19;20345;-80
2023/03/18 09:08:05;;;;;;;4.43;1.95;;;;;;;15.32;48.09;97984.00;7383618;19;19925;-80
2023/03/18 09:10:32;;;;;;;3.05;1.88;;;;;;;15.67;46.58;97986.66;7382404;19;19927;-80
2023/03/18 09:12:59;;;;;;;3.47;1.38;;;;;;;15.97;45.20;97981.88;7381865;19;19926;-80
2023/03/18 09:15:26;;;;;;;1.92;1.20;;;;;;;16.32;43.83;97984.44;7380847;19;19938;-80
2023/03/18 09:17:55;;;;;;;3.78;1.23;;;;;;;16.43;44.85;97983.84;7386957;19;20831;-81
2023/03/18 09:20:38;;;;;;;1.83;1.27;;;;;;;16.39;42.88;97979.94;7382870;19;19922;-80
2023/03/18 09:23:05;;;;;;;3.28;1.13;;;;;;;16.07;41.95;97986.03;7386664;19;19926;-81
2023/03/18 09:25:33;;;;;;;3.70;1.20;;;;;;;15.74;44.67;97982.19;7383480;19;19914;-81
2023/03/18 09:28:01;;;;;;;2.40;1.33;;;;;;;15.52;45.08;97978.78;7383718;19;19922;-80
2023/03/18 09:30:28;;;;;;;3.28;1.55;;;;;;;15.37;44.29;97983.38;7379424;19;20500;-81
2023/03/18 09:32:55;;;;;;;2.95;1.25;;;;;;;15.18;44.75;97984.91;7394629;19;19985;-79
2023/03/18 09:35:23;;;;;;;2.20;1.75;;;;;;;15.22;46.79;97983.53;7391244;19;19911;-79
2023/03/18 09:37:50;;;;;;;1.95;0.93;;;;;;;15.15;44.03;97983.47;7393371;19;20601;-80
2023/03/18 09:40:23;;;;;;;2.20;0.73;;;;;;;15.35;44.90;97974.78;7386535;19;19914;-80
2023/03/18 09:43:12;;;;;;;2.42;1.15;;;;;;;15.64;42.59;97970.19;7389424;19;19943;-80
2023/03/18 09:45:45;;;;;;;2.95;1.08;;;;;;;16.07;41.06;97976.16;7379364;19;19938;-80
2023/03/18 09:48:26;;;;;;;2.55;1.02;;;;;;;16.34;40.46;97965.56;7377733;19;19918;-81
2023/03/18 09:51:04;;;;;;;2.08;1.10;;;;;;;16.58;41.54;97966.81;7382958;19;20277;-80
2023/03/18 09:53:49;;;;;;;1.20;0.73;;;;;;;16.57;40.76;97963.34;7378889;19;19946;-80
2023/03/18 09:56:25;;;;;;;2.03;1.05;;;;;;;16.67;41.40;97974.44;7383164;19;19917;-79
2023/03/18 09:58:59;;;;;;;3.47;1.17;;;;;;;16.78;41.50;97972.22;7376211;19;20340;-79
2023/03/18 10:01:48;;;;;;;5.40;2.45;;;;;;;16.79;41.33;97972.00;7377413;19;20486;-80
2023/03/18 10:04:24;;;;;;;3.50;1.45;;;;;;;16.72;40.82;97972.97;7373462;19;20309;-82
2023/03/18 10:06:56;;;;;;;1.02;0.65;;;;;;;16.72;41.89;97971.16;7382381;19;19925;-82
2023/03/18 10:09:30;;;;;;;2.08;0.85;;;;;;;16.56;39.64;97956.34;7383941;19;19907;-81
2023/03/18 10:12:13;;;;;;;1.85;0.93;;;;;;;16.57;41.49;97955.31;7383165;19;19929;-82
2023/03/18 10:14:46;;;;;;;4.00;1.02;;;;;;;16.76;39.88;97953.69;7388516;19;19922;-80
2023/03/18 10:17:25;;;;;;;2.33;0.93;;;;;;;16.98;40.24;97954.34;7387911;19;20466;-81
2023/03/18 10:20:03;;;;;;;1.42;1.00;;;;;;;17.14;40.82;97941.53;7385622;19;20407;-82
2023/03/18 10:22:51;;;;;;;2.55;1.17;;;;;;;17.32;39.35;97950.59;7389094;19;20654;-81
2023/03/18 10:25:22;;;;;;;1.67;0.80;;;;;;;17.57;38.37;97954.41;7389536;19;19978;-82
2023/03/18 10:28:10;;;;;;;1.65;1.02;;;;;;;17.91;35.97;97947.94;7393752;19;19918;-81
2023/03/18 10:30:56;;;;;;;3.05;1.10;;;;;;;18.41;37.40;97940.84;7392806;19;19929;-83
2023/03/18 10:33:50;;;;;;;1.90;0.70;;;;;;;18.73;36.01;97935.47;7387115;19;19922;-82
2023/03/18 10:36:22;;;;;;;3.58;1.67;;;;;;;19.05;35.65;97946.13;7384061;19;19948;-82
2023/03/18 10:38:50;;;;;;;3.25;1.42;;;;;;;19.35;37.09;97934.69;7384054;19;19915;-82
2023/03/18 10:41:34;;;;;;;3.47;1.15;;;;;;;19.52;35.09;97939.25;7386293;19;19922;-81
2023/03/18 10:44:06;;;;;;;2.35;1.27;;;;;;;19.77;34.90;97932.19;7389057;19;19986;-81
2023/03/18 10:46:34;;;;;;;2.40;1.08;;;;;;;19.97;34.47;97934.63;7385460;19;19935;-81
2023/03/18 10:49:07;;;;;;;2.42;0.82;;;;;;;20.04;34.02;97935.38;7390994;19;19918;-81
2023/03/18 10:51:52;;;;;;;2.38;1.17;;;;;;;20.03;32.47;97937.22;7381602;19;19922;-83
2023/03/18 10:54:26;;;;;;;2.03;0.88;;;;;;;19.97;34.65;97931.94;7382048;19;20985;-83
2023/03/18 10:56:53;;;;;;;2.47;1.23;;;;;;;20.13;33.56;97924.06;7382355;19;20567;-83
2023/03/18 10:59:22;;;;;;;2.08;0.95;;;;;;;19.68;34.20;97934.38;7385638;19;19918;-82
2023/03/18 11:02:12;;;;;;;2.75;1.35;;;;;;;19.61;34.47;97923.66;7387624;19;19918;-81
2023/03/18 11:04:55;;;;;;;3.33;1.60;;;;;;;19.80;34.10;97921.84;7386933;19;19926;-82
2023/03/18 11:07:24;;;;;;;2.67;1.00;;;;;;;19.94;34.20;97922.47;7382193;19;19918;-82
2023/03/18 11:09:51;;;;;;;2.33;1.15;;;;;;;20.07;35.66;97910.75;7385166;19;19929;-83
2023/03/18 11:12:28;;;;;;;1.80;1.00;;;;;;;19.76;33.05;97912.59;7390099;19;19918;-82
2023/03/18 11:14:55;;;;;;;1.45;0.73;;;;;;;19.93;34.39;97915.44;7388784;19;19922;-81
2023/03/18 11:17:34;;;;;;;1.92;0.90;;;;;;;19.97;33.93;97913.16;7399934;19;19911;-82
2023/03/18 11:20:25;;;;;;;3.10;0.70;;;;;;;20.34;33.85;97911.97;7399361;19;19923;-80
2023/03/18 11:22:54;;;;;;;1.90;0.90;;;;;;;21.21;32.64;97906.00;7390973;19;19929;-83
2023/03/18 11:25:25;;;;;;;2.00;0.60;;;;;;;22.39;30.37;97905.66;7388932;19;19918;-82
2023/03/18 11:28:03;;;;;;;1.35;0.68;;;;;;;23.37;28.43;97903.41;7387724;19;20656;-82
2023/03/18 11:30:43;;;;;;;4.32;1.10;;;;;;;24.67;25.68;97896.44;7390496;19;19942;-83
2023/03/18 11:33:10;;;;;;;2.53;0.93;;;;;;;25.33;26.38;97888.78;7393497;19;19998;-83
2023/03/18 11:35:50;;;;;;;1.80;0.73;;;;;;;26.16;25.59;97885.31;7386994;19;20245;-83
2023/03/18 11:38:27;;;;;;;2.10;0.95;;;;;;;26.01;24.44;97887.97;7391711;19;19914;-82
2023/03/18 11:41:14;;;;;;;2.13;0.75;;;;;;;25.51;24.08;97884.00;7388660;19;19910;-83
2023/03/18 11:43:55;;;;;;;2.50;0.95;;;;;;;25.15;24.15;97875.69;7387980;19;19914;-83
2023/03/18 11:46:22;;;;;;;2.47;0.70;;;;;;;25.32;25.84;97870.91;7386611;19;19918;-82
2023/03/18 11:48:49;;;;;;;2.80;0.98;;;;;;;24.78;25.45;97864.88;7390441;19;19982;-82
2023/03/18 11:51:21;;;;;;;1.77;0.90;;;;;;;24.13;26.69;97874.84;7390162;19;19919;-83
2023/03/18 11:54:03;;;;;;;2.13;0.80;;;;;;;23.81;26.46;97875.63;7393162;19;19922;-80